sensor_id;sensor_type;location;lat;lon;timestamp;pressure;altitude;pressure_sealevel;temperature;humidity
3260;BME280;22469;48.150;14.004;2023-03-17T00:00:36;98257.72;;;7.02;43.53
3260;BME280;22469;48.150;14.004;2023-03-17T00:03:05;98258.56;;;7.01;44.40
3260;BME280;22469;48.150;14.004;2023-03-17T00:05:34;98255.28;;;6.93;43.59
3260;BME280;22469;48.150;14.004;2023-03-17T00:08:26;98262.06;;;6.95;44.32
3260;BME280;22469;48.150;14.004;2023-03-17T00:10:55;98257.88;;;6.89;43.13
3260;BME280;22469;48.150;14.004;2023-03-17T00:13:22;98252.78;;;6.89;43.61
3260;BME280;22469;48.150;14.004;2023-03-17T00:16:00;98243.50;;;6.85;44.30
3260;BME280;22469;48.150;14.004;2023-03-17T00:18:29;98252.03;;;6.81;44.07
3260;BME280;22469;48.150;14.004;2023-03-17T00:20:57;98250.41;;;6.77;44.28
3260;BME280;22469;48.150;14.004;2023-03-17T00:23:25;98252.97;;;6.76;44.12
3260;BME280;22469;48.150;14.004;2023-03-17T00:25:52;98246.22;;;6.72;44.63
3260;BME280;22469;48.150;14.004;2023-03-17T00:28:25;98240.34;;;6.65;44.28
3260;BME280;22469;48.150;14.004;2023-03-17T00:30:55;98246.28;;;6.65;45.09
3260;BME280;22469;48.150;14.004;2023-03-17T00:33:29;98242.97;;;6.60;45.59
3260;BME280;22469;48.150;14.004;2023-03-17T00:35:59;98233.66;;;6.56;45.61
3260;BME280;22469;48.150;14.004;2023-03-17T00:38:27;98246.38;;;6.58;45.70
3260;BME280;22469;48.150;14.004;2023-03-17T00:40:54;98237.09;;;6.52;46.69
3260;BME280;22469;48.150;14.004;2023-03-17T00:43:21;98234.66;;;6.46;46.62
3260;BME280;22469;48.150;14.004;2023-03-17T00:45:48;98233.88;;;6.39;46.64
3260;BME280;22469;48.150;14.004;2023-03-17T00:48:19;98238.16;;;6.36;46.50
3260;BME280;22469;48.150;14.004;2023-03-17T00:50:48;98238.22;;;6.30;46.29
3260;BME280;22469;48.150;14.004;2023-03-17T00:53:17;98236.59;;;6.26;46.66
3260;BME280;22469;48.150;14.004;2023-03-17T00:55:47;98217.19;;;6.11;46.64
3260;BME280;22469;48.150;14.004;2023-03-17T01:00:56;98218.88;;;6.13;47.17
3260;BME280;22469;48.150;14.004;2023-03-17T01:03:25;98220.63;;;6.10;48.26
3260;BME280;22469;48.150;14.004;2023-03-17T01:05:53;98207.03;;;6.08;47.73
3260;BME280;22469;48.150;14.004;2023-03-17T01:08:23;98208.78;;;6.04;47.96
3260;BME280;22469;48.150;14.004;2023-03-17T01:10:51;98213.06;;;6.01;48.37
3260;BME280;22469;48.150;14.004;2023-03-17T01:13:18;98204.63;;;5.97;48.71
3260;BME280;22469;48.150;14.004;2023-03-17T01:15:47;98202.09;;;5.96;47.92
3260;BME280;22469;48.150;14.004;2023-03-17T01:18:17;98203.84;;;5.89;48.04
3260;BME280;22469;48.150;14.004;2023-03-17T01:20:47;98201.28;;;5.87;48.64
3260;BME280;22469;48.150;14.004;2023-03-17T01:23:15;98195.38;;;5.88;48.34
3260;BME280;22469;48.150;14.004;2023-03-17T01:25:43;98192.88;;;5.82;48.28
3260;BME280;22469;48.150;14.004;2023-03-17T01:28:15;98199.63;;;5.85;48.04
3260;BME280;22469;48.150;14.004;2023-03-17T01:30:44;98194.56;;;5.80;48.34
3260;BME280;22469;48.150;14.004;2023-03-17T01:33:13;98191.19;;;5.81;48.19
3260;BME280;22469;48.150;14.004;2023-03-17T01:35:41;98192.03;;;5.80;47.99
3260;BME280;22469;48.150;14.004;2023-03-17T01:38:13;98186.09;;;5.80;47.93
3260;BME280;22469;48.150;14.004;2023-03-17T01:40:46;98185.25;;;5.79;48.07
3260;BME280;22469;48.150;14.004;2023-03-17T01:43:19;98172.53;;;5.78;47.96
3260;BME280;22469;48.150;14.004;2023-03-17T01:46:18;98167.47;;;5.76;48.22
3260;BME280;22469;48.150;14.004;2023-03-17T01:52:09;98164.19;;;5.66;49.51
3260;BME280;22469;48.150;14.004;2023-03-17T01:54:49;98159.28;;;5.48;50.80
3260;BME280;22469;48.150;14.004;2023-03-17T01:57:28;98156.72;;;5.48;50.24
3260;BME280;22469;48.150;14.004;2023-03-17T02:00:07;98149.09;;;5.48;50.11
3260;BME280;22469;48.150;14.004;2023-03-17T02:02:47;98153.31;;;5.49;50.09
3260;BME280;22469;48.150;14.004;2023-03-17T02:05:20;98154.19;;;5.46;50.42
3260;BME280;22469;48.150;14.004;2023-03-17T02:07:52;98144.94;;;5.41;50.66
3260;BME280;22469;48.150;14.004;2023-03-17T02:10:22;98155.94;;;5.40;51.03
3260;BME280;22469;48.150;14.004;2023-03-17T02:12:59;98145.81;;;5.37;51.85
3260;BME280;22469;48.150;14.004;2023-03-17T02:15:45;98145.81;;;5.37;51.49
3260;BME280;22469;48.150;14.004;2023-03-17T02:18:17;98139.91;;;5.35;51.51
3260;BME280;22469;48.150;14.004;2023-03-17T02:23:16;98145.03;;;5.30;51.37
3260;BME280;22469;48.150;14.004;2023-03-17T02:25:45;98140.81;;;5.28;50.79
3260;BME280;22469;48.150;14.004;2023-03-17T02:28:20;98132.34;;;5.22;50.27
3260;BME280;22469;48.150;14.004;2023-03-17T02:30:49;98123.91;;;5.23;50.24
3260;BME280;22469;48.150;14.004;2023-03-17T02:33:16;98127.25;;;5.26;50.25
3260;BME280;22469;48.150;14.004;2023-03-17T02:35:44;98124.72;;;5.27;50.12
3260;BME280;22469;48.150;14.004;2023-03-17T02:38:13;98123.88;;;5.27;50.86
3260;BME280;22469;48.150;14.004;2023-03-17T02:40:40;98115.44;;;5.23;51.78
3260;BME280;22469;48.150;14.004;2023-03-17T02:43:07;98117.06;;;5.26;51.59
3260;BME280;22469;48.150;14.004;2023-03-17T02:45:34;98123.91;;;5.23;51.26
3260;BME280;22469;48.150;14.004;2023-03-17T02:48:02;98121.41;;;5.17;52.06
3260;BME280;22469;48.150;14.004;2023-03-17T02:50:31;98116.38;;;5.08;52.78
3260;BME280;22469;48.150;14.004;2023-03-17T02:52:58;98122.34;;;5.07;52.88
3260;BME280;22469;48.150;14.004;2023-03-17T02:55:25;98110.53;;;5.00;53.44
3260;BME280;22469;48.150;14.004;2023-03-17T02:57:52;98119.84;;;5.03;52.78
3260;BME280;22469;48.150;14.004;2023-03-17T03:00:20;98109.66;;;5.01;52.78
3260;BME280;22469;48.150;14.004;2023-03-17T03:02:47;98105.44;;;4.98;53.33
3260;BME280;22469;48.150;14.004;2023-03-17T03:05:14;98116.50;;;4.94;53.43
3260;BME280;22469;48.150;14.004;2023-03-17T03:07:42;98103.84;;;4.90;53.58
3260;BME280;22469;48.150;14.004;2023-03-17T03:10:09;98094.56;;;4.86;53.98
3260;BME280;22469;48.150;14.004;2023-03-17T03:12:37;98100.50;;;4.83;53.43
3260;BME280;22469;48.150;14.004;2023-03-17T03:15:04;98097.13;;;4.81;53.27
3260;BME280;22469;48.150;14.004;2023-03-17T03:17:32;98097.13;;;4.80;53.15
3260;BME280;22469;48.150;14.004;2023-03-17T03:19:59;98101.38;;;4.78;53.33
3260;BME280;22469;48.150;14.004;2023-03-17T03:22:26;98098.06;;;4.66;54.52
3260;BME280;22469;48.150;14.004;2023-03-17T03:24:53;98104.91;;;4.57;55.05
3260;BME280;22469;48.150;14.004;2023-03-17T03:27:20;98103.25;;;4.53;55.02
3260;BME280;22469;48.150;14.004;2023-03-17T03:29:47;98105.03;;;4.41;55.62
3260;BME280;22469;48.150;14.004;2023-03-17T03:32:14;98113.47;;;4.40;55.43
3260;BME280;22469;48.150;14.004;2023-03-17T03:34:41;98108.38;;;4.43;55.40
3260;BME280;22469;48.150;14.004;2023-03-17T03:37:09;98099.09;;;4.42;55.16
3260;BME280;22469;48.150;14.004;2023-03-17T03:39:36;98097.34;;;4.44;55.52
3260;BME280;22469;48.150;14.004;2023-03-17T03:42:03;98097.34;;;4.44;55.53
3260;BME280;22469;48.150;14.004;2023-03-17T03:44:30;98110.97;;;4.39;55.92
3260;BME280;22469;48.150;14.004;2023-03-17T03:46:58;98104.19;;;4.39;56.23
3260;BME280;22469;48.150;14.004;2023-03-17T03:49:25;98100.78;;;4.39;56.44
3260;BME280;22469;48.150;14.004;2023-03-17T03:51:52;98104.19;;;4.33;56.98
3260;BME280;22469;48.150;14.004;2023-03-17T03:54:19;98110.19;;;4.23;56.41
3260;BME280;22469;48.150;14.004;2023-03-17T03:56:46;98106.81;;;4.19;56.27
3260;BME280;22469;48.150;14.004;2023-03-17T03:59:13;98104.25;;;4.22;57.01
3260;BME280;22469;48.150;14.004;2023-03-17T04:01:40;98094.94;;;4.23;57.22
3260;BME280;22469;48.150;14.004;2023-03-17T04:04:07;98100.03;;;4.27;56.93
3260;BME280;22469;48.150;14.004;2023-03-17T04:06:35;98100.84;;;4.28;56.58
3260;BME280;22469;48.150;14.004;2023-03-17T04:09:02;98105.94;;;4.23;56.95
3260;BME280;22469;48.150;14.004;2023-03-17T04:11:29;98108.50;;;4.25;56.66
3260;BME280;22469;48.150;14.004;2023-03-17T04:13:56;98105.94;;;4.25;56.28
3260;BME280;22469;48.150;14.004;2023-03-17T04:16:23;98110.19;;;4.24;55.71
3260;BME280;22469;48.150;14.004;2023-03-17T04:18:50;98114.44;;;4.24;55.55
3260;BME280;22469;48.150;14.004;2023-03-17T04:21:18;98113.56;;;4.25;55.45
3260;BME280;22469;48.150;14.004;2023-03-17T04:23:46;98108.47;;;4.23;55.65
3260;BME280;22469;48.150;14.004;2023-03-17T04:26:13;98113.56;;;4.25;55.37
3260;BME280;22469;48.150;14.004;2023-03-17T04:28:40;98111.00;;;4.26;55.47
3260;BME280;22469;48.150;14.004;2023-03-17T04:31:10;98112.72;;;4.23;55.26
3260;BME280;22469;48.150;14.004;2023-03-17T04:33:38;98111.00;;;4.26;55.23
3260;BME280;22469;48.150;14.004;2023-03-17T04:36:06;98109.34;;;4.24;55.60
3260;BME280;22469;48.150;14.004;2023-03-17T04:38:34;98105.13;;;4.24;55.93
3260;BME280;22469;48.150;14.004;2023-03-17T04:41:01;98113.56;;;4.20;55.54
3260;BME280;22469;48.150;14.004;2023-03-17T04:43:28;98110.19;;;4.20;56.02
3260;BME280;22469;48.150;14.004;2023-03-17T04:45:55;98111.91;;;4.21;55.90
3260;BME280;22469;48.150;14.004;2023-03-17T04:48:22;98112.72;;;4.20;56.13
3260;BME280;22469;48.150;14.004;2023-03-17T04:50:49;98102.59;;;4.15;56.82
3260;BME280;22469;48.150;14.004;2023-03-17T04:53:17;98104.31;;;4.15;57.41
3260;BME280;22469;48.150;14.004;2023-03-17T04:55:44;98110.25;;;4.12;57.38
3260;BME280;22469;48.150;14.004;2023-03-17T04:58:11;98095.03;;;4.11;57.61
3260;BME280;22469;48.150;14.004;2023-03-17T05:00:55;98087.44;;;4.08;57.24
3260;BME280;22469;48.150;14.004;2023-03-17T05:03:22;98089.09;;;4.10;58.58
3260;BME280;22469;48.150;14.004;2023-03-17T05:05:53;98083.19;;;4.11;58.26
3260;BME280;22469;48.150;14.004;2023-03-17T05:08:21;98079.81;;;4.11;57.98
3260;BME280;22469;48.150;14.004;2023-03-17T05:10:48;98080.66;;;4.08;58.32
3260;BME280;22469;48.150;14.004;2023-03-17T05:13:17;98072.22;;;4.04;58.26
3260;BME280;22469;48.150;14.004;2023-03-17T05:15:49;98078.13;;;4.02;58.35
3260;BME280;22469;48.150;14.004;2023-03-17T05:18:18;98066.31;;;3.99;58.03
3260;BME280;22469;48.150;14.004;2023-03-17T05:20:47;98064.59;;;4.00;58.53
3260;BME280;22469;48.150;14.004;2023-03-17T05:23:14;98063.78;;;3.98;58.70
3260;BME280;22469;48.150;14.004;2023-03-17T05:25:41;98062.94;;;3.99;58.91
3260;BME280;22469;48.150;14.004;2023-03-17T05:28:09;98062.94;;;3.96;58.85
3260;BME280;22469;48.150;14.004;2023-03-17T05:30:37;98056.22;;;3.90;59.00
3260;BME280;22469;48.150;14.004;2023-03-17T05:33:04;98057.03;;;3.94;59.01
3260;BME280;22469;48.150;14.004;2023-03-17T05:35:31;98059.59;;;3.94;58.93
3260;BME280;22469;48.150;14.004;2023-03-17T05:37:58;98066.38;;;3.86;59.56
3260;BME280;22469;48.150;14.004;2023-03-17T05:40:26;98072.31;;;3.85;59.36
3260;BME280;22469;48.150;14.004;2023-03-17T05:42:53;98074.84;;;3.83;59.70
3260;BME280;22469;48.150;14.004;2023-03-17T05:45:20;98079.06;;;3.84;59.37
3260;BME280;22469;48.150;14.004;2023-03-17T05:47:47;98074.84;;;3.85;59.50
3260;BME280;22469;48.150;14.004;2023-03-17T05:50:14;98075.69;;;3.87;59.70
3260;BME280;22469;48.150;14.004;2023-03-17T05:52:42;98075.69;;;3.87;60.02
3260;BME280;22469;48.150;14.004;2023-03-17T05:55:09;98084.13;;;3.90;60.28
3260;BME280;22469;48.150;14.004;2023-03-17T05:57:37;98080.72;;;3.93;59.89
3260;BME280;22469;48.150;14.004;2023-03-17T06:00:04;98089.16;;;3.95;60.44
3260;BME280;22469;48.150;14.004;2023-03-17T06:02:32;98080.72;;;3.97;60.33
3260;BME280;22469;48.150;14.004;2023-03-17T06:04:59;98094.19;;;4.06;60.20
3260;BME280;22469;48.150;14.004;2023-03-17T06:07:27;98095.84;;;4.13;60.83
3260;BME280;22469;48.150;14.004;2023-03-17T06:10:14;98092.44;;;4.21;61.16
3260;BME280;22469;48.150;14.004;2023-03-17T06:12:41;98080.56;;;4.28;60.99
3260;BME280;22469;48.150;14.004;2023-03-17T06:15:08;98080.53;;;4.34;60.99
3260;BME280;22469;48.150;14.004;2023-03-17T06:17:35;98077.94;;;4.37;61.05
3260;BME280;22469;48.150;14.004;2023-03-17T06:20:03;98075.38;;;4.43;60.67
3260;BME280;22469;48.150;14.004;2023-03-17T06:22:31;98068.53;;;4.53;60.99
3260;BME280;22469;48.150;14.004;2023-03-17T06:24:58;98061.66;;;4.64;61.50
3260;BME280;22469;48.150;14.004;2023-03-17T06:27:26;98062.44;;;4.79;61.13
3260;BME280;22469;48.150;14.004;2023-03-17T06:29:53;98067.38;;;4.94;60.67
3260;BME280;22469;48.150;14.004;2023-03-17T06:32:20;98076.69;;;4.93;59.76
3260;BME280;22469;48.150;14.004;2023-03-17T06:34:48;98075.00;;;4.94;59.50
3260;BME280;22469;48.150;14.004;2023-03-17T06:37:15;98079.16;;;5.04;58.95
3260;BME280;22469;48.150;14.004;2023-03-17T06:39:42;98079.97;;;5.06;59.04
3260;BME280;22469;48.150;14.004;2023-03-17T06:42:11;98084.97;;;5.15;58.35
3260;BME280;22469;48.150;14.004;2023-03-17T06:44:38;98086.66;;;5.18;58.44
3260;BME280;22469;48.150;14.004;2023-03-17T06:47:05;98095.09;;;5.21;57.95
3260;BME280;22469;48.150;14.004;2023-03-17T06:49:32;98088.22;;;5.30;57.64
3260;BME280;22469;48.150;14.004;2023-03-17T06:51:59;98086.41;;;5.42;58.23
3260;BME280;22469;48.150;14.004;2023-03-17T06:54:27;98078.63;;;5.58;57.75
3260;BME280;22469;48.150;14.004;2023-03-17T06:56:54;98073.38;;;5.70;57.28
3260;BME280;22469;48.150;14.004;2023-03-17T06:59:21;98079.06;;;5.93;57.24
3260;BME280;22469;48.150;14.004;2023-03-17T07:01:48;98070.38;;;6.10;55.94
3260;BME280;22469;48.150;14.004;2023-03-17T07:04:17;98066.66;;;6.34;56.36
3260;BME280;22469;48.150;14.004;2023-03-17T07:06:45;98066.31;;;6.58;55.63
3260;BME280;22469;48.150;14.004;2023-03-17T07:09:12;98070.16;;;6.84;54.54
3260;BME280;22469;48.150;14.004;2023-03-17T07:11:41;98076.59;;;7.06;53.11
3260;BME280;22469;48.150;14.004;2023-03-17T07:14:08;98073.75;;;7.23;50.72
3260;BME280;22469;48.150;14.004;2023-03-17T07:16:35;98073.53;;;7.35;50.37
3260;BME280;22469;48.150;14.004;2023-03-17T07:19:03;98074.91;;;7.53;48.29
3260;BME280;22469;48.150;14.004;2023-03-17T07:21:30;98074.88;;;7.55;47.03
3260;BME280;22469;48.150;14.004;2023-03-17T07:23:57;98086.47;;;7.71;46.52
3260;BME280;22469;48.150;14.004;2023-03-17T07:26:24;98080.19;;;7.88;45.89
3260;BME280;22469;48.150;14.004;2023-03-17T07:28:52;98074.00;;;7.99;44.66
3260;BME280;22469;48.150;14.004;2023-03-17T07:31:19;98068.56;;;8.15;45.33
3260;BME280;22469;48.150;14.004;2023-03-17T07:33:46;98070.72;;;8.33;45.07
3260;BME280;22469;48.150;14.004;2023-03-17T07:36:13;98071.97;;;8.54;44.37
3260;BME280;22469;48.150;14.004;2023-03-17T07:38:41;98060.75;;;8.61;43.26
3260;BME280;22469;48.150;14.004;2023-03-17T07:41:09;98055.31;;;8.75;42.95
3260;BME280;22469;48.150;14.004;2023-03-17T07:43:36;98055.78;;;8.55;41.38
3260;BME280;22469;48.150;14.004;2023-03-17T07:46:07;98057.78;;;8.78;42.45
3260;BME280;22469;48.150;14.004;2023-03-17T07:48:34;98050.94;;;8.78;41.49
3260;BME280;22469;48.150;14.004;2023-03-17T07:51:03;98058.66;;;8.77;41.08
3260;BME280;22469;48.150;14.004;2023-03-17T07:53:31;98048.38;;;8.80;41.00
3260;BME280;22469;48.150;14.004;2023-03-17T07:55:58;98055.78;;;8.91;41.66
3260;BME280;22469;48.150;14.004;2023-03-17T07:58:25;98053.63;;;9.10;42.60
3260;BME280;22469;48.150;14.004;2023-03-17T08:00:52;98049.41;;;9.07;40.33
3260;BME280;22469;48.150;14.004;2023-03-17T08:03:19;98050.13;;;9.12;40.73
3260;BME280;22469;48.150;14.004;2023-03-17T08:05:50;98048.09;;;8.92;39.87
3260;BME280;22469;48.150;14.004;2023-03-17T08:08:24;98046.78;;;9.09;40.31
3260;BME280;22469;48.150;14.004;2023-03-17T08:10:51;98041.22;;;9.27;39.86
3260;BME280;22469;48.150;14.004;2023-03-17T08:13:19;98045.94;;;9.42;41.28
3260;BME280;22469;48.150;14.004;2023-03-17T08:15:46;98047.56;;;9.45;40.74
3260;BME280;22469;48.150;14.004;2023-03-17T08:18:13;98048.84;;;9.61;40.95
3260;BME280;22469;48.150;14.004;2023-03-17T08:20:40;98045.00;;;9.76;39.89
3260;BME280;22469;48.150;14.004;2023-03-17T08:23:07;98038.47;;;9.66;39.44
3260;BME280;22469;48.150;14.004;2023-03-17T08:25:34;98039.75;;;9.49;40.07
3260;BME280;22469;48.150;14.004;2023-03-17T08:28:02;98032.28;;;9.42;40.48
3260;BME280;22469;48.150;14.004;2023-03-17T08:30:30;98026.94;;;9.51;40.85
3260;BME280;22469;48.150;14.004;2023-03-17T08:32:59;98028.53;;;9.54;40.07
3260;BME280;22469;48.150;14.004;2023-03-17T08:35:26;98016.13;;;9.40;39.92
3260;BME280;22469;48.150;14.004;2023-03-17T08:37:53;98010.31;;;9.35;40.13
3260;BME280;22469;48.150;14.004;2023-03-17T08:40:22;98011.25;;;8.98;39.18
3260;BME280;22469;48.150;14.004;2023-03-17T08:42:50;98008.31;;;9.13;40.31
3260;BME280;22469;48.150;14.004;2023-03-17T08:45:17;98011.31;;;8.96;39.67
3260;BME280;22469;48.150;14.004;2023-03-17T08:47:45;98012.66;;;8.77;39.85
3260;BME280;22469;48.150;14.004;2023-03-17T08:50:19;98017.19;;;9.00;40.93
3260;BME280;22469;48.150;14.004;2023-03-17T08:52:49;98016.66;;;8.87;40.77
3260;BME280;22469;48.150;14.004;2023-03-17T08:55:18;98026.81;;;8.90;40.32
3260;BME280;22469;48.150;14.004;2023-03-17T08:57:45;98022.66;;;8.86;41.52
3260;BME280;22469;48.150;14.004;2023-03-17T09:00:16;98028.88;;;9.09;41.28
3260;BME280;22469;48.150;14.004;2023-03-17T09:02:46;98016.91;;;9.11;41.26
3260;BME280;22469;48.150;14.004;2023-03-17T09:05:16;98020.63;;;9.32;41.14
3260;BME280;22469;48.150;14.004;2023-03-17T09:07:43;98019.41;;;9.45;40.97
3260;BME280;22469;48.150;14.004;2023-03-17T09:10:11;98025.59;;;9.67;41.00
3260;BME280;22469;48.150;14.004;2023-03-17T09:12:40;98016.34;;;9.93;40.20
3260;BME280;22469;48.150;14.004;2023-03-17T09:15:10;98014.53;;;9.96;40.22
3260;BME280;22469;48.150;14.004;2023-03-17T09:17:37;98013.31;;;10.08;39.87
3260;BME280;22469;48.150;14.004;2023-03-17T09:20:05;98004.69;;;10.12;40.84
3260;BME280;22469;48.150;14.004;2023-03-17T09:22:33;98011.97;;;10.25;39.64
3260;BME280;22469;48.150;14.004;2023-03-17T09:25:00;98009.00;;;10.10;39.76
3260;BME280;22469;48.150;14.004;2023-03-17T09:27:27;97998.00;;;10.35;39.51
3260;BME280;22469;48.150;14.004;2023-03-17T09:29:54;98003.06;;;10.38;39.19
3260;BME280;22469;48.150;14.004;2023-03-17T09:32:22;97999.06;;;10.29;39.17
3260;BME280;22469;48.150;14.004;2023-03-17T09:34:49;98001.28;;;10.40;38.76
3260;BME280;22469;48.150;14.004;2023-03-17T09:37:17;97996.34;;;10.34;39.99
3260;BME280;22469;48.150;14.004;2023-03-17T09:39:44;98000.22;;;10.74;39.73
3260;BME280;22469;48.150;14.004;2023-03-17T09:45:19;97997.28;;;10.84;38.32
3260;BME280;22469;48.150;14.004;2023-03-17T09:51:04;97993.13;;;11.30;38.48
3260;BME280;22469;48.150;14.004;2023-03-17T09:53:35;97993.09;;;11.55;37.49
3260;BME280;22469;48.150;14.004;2023-03-17T09:56:14;97988.34;;;11.93;37.56
3260;BME280;22469;48.150;14.004;2023-03-17T09:58:52;97984.00;;;12.17;37.48
3260;BME280;22469;48.150;14.004;2023-03-17T10:01:23;97986.78;;;12.33;37.01
3260;BME280;22469;48.150;14.004;2023-03-17T10:03:50;97980.22;;;12.68;35.50
3260;BME280;22469;48.150;14.004;2023-03-17T10:06:31;97980.22;;;13.09;35.22
3260;BME280;22469;48.150;14.004;2023-03-17T10:09:06;97977.59;;;12.90;34.58
3260;BME280;22469;48.150;14.004;2023-03-17T10:11:41;97966.72;;;13.24;36.19
3260;BME280;22469;48.150;14.004;2023-03-17T10:17:41;97967.75;;;13.20;34.47
3260;BME280;22469;48.150;14.004;2023-03-17T10:20:13;97968.59;;;13.00;34.92
3260;BME280;22469;48.150;14.004;2023-03-17T10:22:56;97963.31;;;13.24;35.12
3260;BME280;22469;48.150;14.004;2023-03-17T10:25:55;97974.53;;;13.02;35.47
3260;BME280;22469;48.150;14.004;2023-03-17T10:28:29;97965.22;;;13.39;35.38
3260;BME280;22469;48.150;14.004;2023-03-17T10:31:18;97955.25;;;13.32;34.54
3260;BME280;22469;48.150;14.004;2023-03-17T10:33:49;97953.94;;;13.21;34.35
3260;BME280;22469;48.150;14.004;2023-03-17T10:36:32;97943.72;;;13.59;34.12
3260;BME280;22469;48.150;14.004;2023-03-17T10:39:03;97942.03;;;13.96;35.07
3260;BME280;22469;48.150;14.004;2023-03-17T10:41:37;97937.19;;;14.07;34.11
3260;BME280;22469;48.150;14.004;2023-03-17T10:44:14;97928.97;;;14.35;34.81
3260;BME280;22469;48.150;14.004;2023-03-17T10:50:16;97925.91;;;14.10;33.00
3260;BME280;22469;48.150;14.004;2023-03-17T10:53:38;97914.31;;;13.82;34.22
3260;BME280;22469;48.150;14.004;2023-03-17T10:55:59;97899.75;;;13.81;33.61
3260;BME280;22469;48.150;14.004;2023-03-17T10:58:38;97906.53;;;13.46;34.25
3260;BME280;22469;48.150;14.004;2023-03-17T11:01:29;97903.41;;;13.94;34.04
3260;BME280;22469;48.150;14.004;2023-03-17T11:04:29;97896.72;;;14.27;34.79
3260;BME280;22469;48.150;14.004;2023-03-17T11:09:49;97889.69;;;14.65;33.30
3260;BME280;22469;48.150;14.004;2023-03-17T11:12:28;97876.88;;;14.63;33.86
3260;BME280;22469;48.150;14.004;2023-03-17T11:15:06;97871.25;;;14.55;33.41
3260;BME280;22469;48.150;14.004;2023-03-17T11:18:00;97875.31;;;14.25;33.61
3260;BME280;22469;48.150;14.004;2023-03-17T11:21:50;97859.84;;;14.25;33.36
3260;BME280;22469;48.150;14.004;2023-03-17T11:24:13;97868.91;;;14.51;34.86
3260;BME280;22469;48.150;14.004;2023-03-17T11:27:01;97862.00;;;15.02;33.96
3260;BME280;22469;48.150;14.004;2023-03-17T11:29:51;97857.94;;;15.45;33.56
3260;BME280;22469;48.150;14.004;2023-03-17T11:35:13;97854.63;;;15.43;34.22
3260;BME280;22469;48.150;14.004;2023-03-17T11:38:22;97851.38;;;15.39;33.21
3260;BME280;22469;48.150;14.004;2023-03-17T11:46:31;97838.78;;;15.49;35.48
3260;BME280;22469;48.150;14.004;2023-03-17T11:57:57;97810.66;;;16.21;33.85
3260;BME280;22469;48.150;14.004;2023-03-17T12:00:38;97810.09;;;16.30;33.42
3260;BME280;22469;48.150;14.004;2023-03-17T12:03:30;97807.13;;;16.22;33.05
3260;BME280;22469;48.150;14.004;2023-03-17T12:06:04;97811.19;;;16.11;33.14
3260;BME280;22469;48.150;14.004;2023-03-17T12:08:45;97810.47;;;15.94;34.24
3260;BME280;22469;48.150;14.004;2023-03-17T12:11:40;97808.81;;;16.37;34.24
3260;BME280;22469;48.150;14.004;2023-03-17T12:16:53;97812.91;;;15.81;33.27
3260;BME280;22469;48.150;14.004;2023-03-17T12:22:26;97794.97;;;16.38;33.59
3260;BME280;22469;48.150;14.004;2023-03-17T12:25:08;97789.34;;;16.60;32.89
3260;BME280;22469;48.150;14.004;2023-03-17T12:28:03;97783.56;;;16.41;32.93
3260;BME280;22469;48.150;14.004;2023-03-17T12:30:51;97775.16;;;16.37;32.93
3260;BME280;22469;48.150;14.004;2023-03-17T12:36:04;97774.44;;;16.35;32.35
3260;BME280;22469;48.150;14.004;2023-03-17T12:38:41;97764.81;;;16.37;32.90
3260;BME280;22469;48.150;14.004;2023-03-17T12:41:40;97764.94;;;16.78;33.73
3260;BME280;22469;48.150;14.004;2023-03-17T12:44:28;97763.06;;;16.66;32.76
3260;BME280;22469;48.150;14.004;2023-03-17T12:47:19;97767.13;;;16.70;32.87
3260;BME280;22469;48.150;14.004;2023-03-17T12:55:44;97734.38;;;16.98;33.17
3260;BME280;22469;48.150;14.004;2023-03-17T12:58:36;97726.06;;;17.34;33.43
3260;BME280;22469;48.150;14.004;2023-03-17T13:01:13;97723.09;;;17.53;32.13
3260;BME280;22469;48.150;14.004;2023-03-17T13:04:02;97717.97;;;17.39;31.65
3260;BME280;22469;48.150;14.004;2023-03-17T13:06:52;97718.03;;;17.51;32.24
3260;BME280;22469;48.150;14.004;2023-03-17T13:12:05;97722.69;;;17.59;32.16
3260;BME280;22469;48.150;14.004;2023-03-17T13:15:47;97719.19;;;17.33;31.95
3260;BME280;22469;48.150;14.004;2023-03-17T13:23:38;97721.44;;;17.52;32.80
3260;BME280;22469;48.150;14.004;2023-03-17T13:26:07;97719.31;;;17.32;32.20
3260;BME280;22469;48.150;14.004;2023-03-17T13:34:01;97718.03;;;17.51;32.74
3260;BME280;22469;48.150;14.004;2023-03-17T13:42:51;97720.03;;;17.61;32.62
3260;BME280;22469;48.150;14.004;2023-03-17T13:45:44;97714.75;;;17.35;32.22
3260;BME280;22469;48.150;14.004;2023-03-17T13:48:33;97712.63;;;17.00;32.22
3260;BME280;22469;48.150;14.004;2023-03-17T13:56:47;97699.97;;;17.23;32.47
3260;BME280;22469;48.150;14.004;2023-03-17T13:59:17;97692.25;;;17.36;31.86
3260;BME280;22469;48.150;14.004;2023-03-17T14:01:55;97695.81;;;17.60;31.75
3260;BME280;22469;48.150;14.004;2023-03-17T14:04:29;97683.56;;;17.49;31.94
3260;BME280;22469;48.150;14.004;2023-03-17T14:07:21;97681.88;;;17.36;32.12
3260;BME280;22469;48.150;14.004;2023-03-17T14:09:59;97680.03;;;17.38;31.84
3260;BME280;22469;48.150;14.004;2023-03-17T14:15:20;97680.34;;;17.46;31.12
3260;BME280;22469;48.150;14.004;2023-03-17T14:18:19;97674.47;;;17.17;30.76
3260;BME280;22469;48.150;14.004;2023-03-17T14:20:58;97672.25;;;17.38;31.47
3260;BME280;22469;48.150;14.004;2023-03-17T14:23:27;97670.09;;;17.44;30.52
3260;BME280;22469;48.150;14.004;2023-03-17T14:25:59;97671.44;;;17.50;31.03
3260;BME280;22469;48.150;14.004;2023-03-17T14:28:32;97664.78;;;17.46;31.26
3260;BME280;22469;48.150;14.004;2023-03-17T14:31:03;97670.63;;;17.22;31.68
3260;BME280;22469;48.150;14.004;2023-03-17T14:33:38;97655.56;;;17.42;30.58
3260;BME280;22469;48.150;14.004;2023-03-17T14:36:09;97662.53;;;17.54;31.57
3260;BME280;22469;48.150;14.004;2023-03-17T14:38:50;97664.19;;;17.55;31.25
3260;BME280;22469;48.150;14.004;2023-03-17T14:41:27;97665.81;;;17.43;30.46
3260;BME280;22469;48.150;14.004;2023-03-17T14:43:58;97655.22;;;17.86;30.73
3260;BME280;22469;48.150;14.004;2023-03-17T14:46:34;97647.03;;;17.92;30.04
3260;BME280;22469;48.150;14.004;2023-03-17T14:49:14;97653.69;;;18.09;29.90
3260;BME280;22469;48.150;14.004;2023-03-17T14:51:44;97647.88;;;17.93;29.51
3260;BME280;22469;48.150;14.004;2023-03-17T14:54:18;97656.44;;;17.68;29.76
3260;BME280;22469;48.150;14.004;2023-03-17T14:56:51;97644.09;;;17.71;29.25